Time;durP1;ratioP1;P1;durP2;ratioP2;P2;SDS_P1;SDS_P2;PMS_P1;PMS_P2;Temp;Humidity;BMP_temperature;BMP_pressure;BME280_temperature;BME280_humidity;BME280_pressure;Samples;Min_cycle;Max_cycle;Signal;HPM_P1;HPM_P2
2023/08/22 00:01:40;;;;;;;6.03;5.53;;;;;;;;;;5079746;28;20205;-66
2023/08/22 00:04:08;;;;;;;5.70;5.22;;;;;;;;;;5079730;28;20319;-67
2023/08/22 00:06:36;;;;;;;6.13;5.63;;;;;;;;;;5079556;28;20232;-66
2023/08/22 00:09:04;;;;;;;5.78;5.28;;;;;;;;;;5080045;28;20307;-66
2023/08/22 00:11:33;;;;;;;5.80;5.32;;;;;;;;;;5079799;28;20235;-66
2023/08/22 00:14:02;;;;;;;6.05;5.65;;;;;;;;;;5080204;28;20204;-66
2023/08/22 00:16:30;;;;;;;5.60;5.13;;;;;;;;;;5079950;28;20205;-66
2023/08/22 00:18:59;;;;;;;5.75;5.35;;;;;;;;;;5080036;28;20203;-66
2023/08/22 00:21:26;;;;;;;6.28;5.78;;;;;;;;;;5080032;28;20212;-66
2023/08/22 00:23:54;;;;;;;5.63;5.22;;;;;;;;;;5079675;28;20274;-66
2023/08/22 00:26:22;;;;;;;5.40;5.00;;;;;;;;;;5079433;28;20212;-67
2023/08/22 00:28:49;;;;;;;5.60;5.15;;;;;;;;;;5079974;28;20204;-67
2023/08/22 00:31:17;;;;;;;5.70;5.20;;;;;;;;;;5079822;28;20212;-66
2023/08/22 00:33:44;;;;;;;6.03;5.25;;;;;;;;;;5079879;28;20228;-66
2023/08/22 00:36:13;;;;;;;6.00;5.60;;;;;;;;;;5079836;28;20204;-66
2023/08/22 00:38:41;;;;;;;6.22;5.63;;;;;;;;;;5079608;28;20200;-66
2023/08/22 00:41:09;;;;;;;5.95;5.50;;;;;;;;;;5079578;28;20204;-66
2023/08/22 00:43:36;;;;;;;6.47;5.88;;;;;;;;;;5079488;28;20674;-66
2023/08/22 00:46:04;;;;;;;5.90;5.40;;;;;;;;;;5079443;28;20580;-66
2023/08/22 00:48:32;;;;;;;5.40;5.00;;;;;;;;;;5079359;28;20238;-66
2023/08/22 00:50:59;;;;;;;6.07;5.53;;;;;;;;;;5079442;28;20295;-66
2023/08/22 00:53:28;;;;;;;6.25;5.75;;;;;;;;;;5079266;28;20312;-67
2023/08/22 00:55:56;;;;;;;6.40;5.93;;;;;;;;;;5079002;28;20654;-66
2023/08/22 00:58:24;;;;;;;6.05;5.45;;;;;;;;;;5079221;28;20265;-66
2023/08/22 01:00:52;;;;;;;5.88;5.40;;;;;;;;;;5078841;28;20208;-67
2023/08/22 01:03:20;;;;;;;5.93;5.50;;;;;;;;;;5078742;28;20571;-66
2023/08/22 01:05:49;;;;;;;6.32;5.78;;;;;;;;;;5078472;28;20251;-66
2023/08/22 01:08:21;;;;;;;5.63;5.13;;;;;;;;;;5078768;28;20596;-66
2023/08/22 01:10:52;;;;;;;5.95;5.55;;;;;;;;;;5078905;28;20568;-66
2023/08/22 01:13:22;;;;;;;6.13;5.53;;;;;;;;;;5078764;28;20201;-66
2023/08/22 01:15:51;;;;;;;6.03;5.53;;;;;;;;;;5078534;28;20204;-66
2023/08/22 01:18:19;;;;;;;5.65;5.25;;;;;;;;;;5078520;28;20659;-66
2023/08/22 01:20:47;;;;;;;5.85;5.35;;;;;;;;;;5078515;28;20212;-66
2023/08/22 01:23:16;;;;;;;5.43;5.03;;;;;;;;;;5061210;28;20211;-66
2023/08/22 01:25:44;;;;;;;5.70;5.20;;;;;;;;;;5078331;28;20208;-66
2023/08/22 01:28:14;;;;;;;5.70;5.20;;;;;;;;;;5078619;28;20224;-66
2023/08/22 01:30:48;;;;;;;6.43;5.82;;;;;;;;;;5078308;28;20303;-66
2023/08/22 01:33:18;;;;;;;6.05;5.45;;;;;;;;;;5078795;28;20516;-67
2023/08/22 01:35:47;;;;;;;6.35;5.78;;;;;;;;;;5078493;28;20251;-66
2023/08/22 01:38:17;;;;;;;6.20;5.68;;;;;;;;;;5078378;28;20556;-66
2023/08/22 01:40:46;;;;;;;5.97;5.40;;;;;;;;;;5078072;28;20204;-66
2023/08/22 01:43:14;;;;;;;5.72;5.32;;;;;;;;;;5077947;28;20600;-66
2023/08/22 01:45:42;;;;;;;5.82;5.30;;;;;;;;;;5078399;28;20211;-66
2023/08/22 01:48:10;;;;;;;5.72;5.28;;;;;;;;;;5078187;28;20246;-67
2023/08/22 01:50:37;;;;;;;5.55;5.10;;;;;;;;;;5078418;28;20208;-67
2023/08/22 01:53:06;;;;;;;5.80;5.30;;;;;;;;;;5078332;28;20204;-67
2023/08/22 01:55:35;;;;;;;5.97;5.47;;;;;;;;;;5078293;28;20270;-67
2023/08/22 01:58:04;;;;;;;5.32;4.90;;;;;;;;;;5077760;28;20204;-68
2023/08/22 02:00:31;;;;;;;5.45;5.05;;;;;;;;;;5077826;28;20577;-67
2023/08/22 02:02:59;;;;;;;5.70;5.20;;;;;;;;;;5078014;28;20266;-67
2023/08/22 02:05:27;;;;;;;5.80;5.30;;;;;;;;;;5077775;28;20246;-67
2023/08/22 02:07:54;;;;;;;5.70;5.20;;;;;;;;;;5077680;28;20945;-68
2023/08/22 02:10:22;;;;;;;6.13;5.40;;;;;;;;;;5077493;28;20580;-67
2023/08/22 02:12:51;;;;;;;5.70;5.30;;;;;;;;;;5077588;28;20212;-68
2023/08/22 02:15:20;;;;;;;5.85;5.25;;;;;;;;;;5076992;28;20265;-67
2023/08/22 02:17:48;;;;;;;5.50;5.10;;;;;;;;;;5077872;28;20223;-67
2023/08/22 02:20:15;;;;;;;5.05;4.65;;;;;;;;;;5078039;28;20502;-67
2023/08/22 02:22:43;;;;;;;5.28;4.90;;;;;;;;;;5076811;28;20548;-67
2023/08/22 02:25:11;;;;;;;5.70;5.22;;;;;;;;;;5076856;28;20204;-66
2023/08/22 02:27:39;;;;;;;5.68;5.18;;;;;;;;;;5077128;28;20289;-68
2023/08/22 02:30:10;;;;;;;5.35;4.85;;;;;;;;;;5077445;28;20204;-66
2023/08/22 02:32:37;;;;;;;5.60;5.20;;;;;;;;;;5077737;28;20214;-67
2023/08/22 02:35:06;;;;;;;5.57;5.07;;;;;;;;;;5077606;28;20212;-67
2023/08/22 02:37:34;;;;;;;5.20;4.80;;;;;;;;;;5077813;28;20200;-67
2023/08/22 02:40:06;;;;;;;5.40;5.00;;;;;;;;;;5077496;28;20215;-66
2023/08/22 02:42:33;;;;;;;5.93;5.43;;;;;;;;;;5077221;28;20215;-67
2023/08/22 02:45:01;;;;;;;5.65;5.25;;;;;;;;;;5077193;28;20493;-67
2023/08/22 02:47:31;;;;;;;5.65;5.15;;;;;;;;;;5077079;28;20316;-67
2023/08/22 02:49:59;;;;;;;5.53;5.13;;;;;;;;;;5077184;28;20565;-67
2023/08/22 02:52:26;;;;;;;5.82;5.35;;;;;;;;;;5076997;28;20270;-67
2023/08/22 02:54:54;;;;;;;5.75;5.35;;;;;;;;;;5076876;28;20216;-67
2023/08/22 02:57:22;;;;;;;5.82;5.32;;;;;;;;;;5076972;28;20204;-67
2023/08/22 02:59:49;;;;;;;5.97;5.50;;;;;;;;;;5077229;28;20204;-67
2023/08/22 03:02:17;;;;;;;5.43;5.03;;;;;;;;;;5076662;28;20228;-67
2023/08/22 03:04:46;;;;;;;5.32;4.93;;;;;;;;;;5077377;28;20230;-67
2023/08/22 03:07:14;;;;;;;5.35;4.95;;;;;;;;;;5056964;28;20205;-67
2023/08/22 03:09:44;;;;;;;4.53;4.18;;;;;;;;;;5057116;28;20208;-66
2023/08/22 03:12:11;;;;;;;4.88;4.55;;;;;;;;;;5057306;28;20231;-67
2023/08/22 03:14:39;;;;;;;5.20;4.80;;;;;;;;;;5056901;28;20223;-67
2023/08/22 03:17:06;;;;;;;4.80;4.50;;;;;;;;;;5057321;28;20260;-67
2023/08/22 03:19:34;;;;;;;5.10;4.70;;;;;;;;;;5057022;28;20284;-66
2023/08/22 03:22:03;;;;;;;4.90;4.50;;;;;;;;;;5056702;28;20299;-67
2023/08/22 03:24:31;;;;;;;4.85;4.47;;;;;;;;;;5057037;28;20232;-67
2023/08/22 03:26:59;;;;;;;5.22;4.82;;;;;;;;;;5059060;28;20204;-67
2023/08/22 03:29:27;;;;;;;5.07;4.78;;;;;;;;;;5060422;28;20232;-68
2023/08/22 03:31:54;;;;;;;5.00;4.60;;;;;;;;;;5060281;28;20308;-66
2023/08/22 03:34:22;;;;;;;5.50;4.70;;;;;;;;;;5060380;28;20223;-67
2023/08/22 03:36:49;;;;;;;5.00;4.65;;;;;;;;;;5060552;28;20209;-67
2023/08/22 03:39:19;;;;;;;4.68;4.38;;;;;;;;;;5060132;28;20482;-68
2023/08/22 03:41:46;;;;;;;5.25;4.63;;;;;;;;;;5060475;28;20205;-67
2023/08/22 03:44:14;;;;;;;4.90;4.50;;;;;;;;;;5060200;28;20251;-67
2023/08/22 03:46:42;;;;;;;4.38;4.07;;;;;;;;;;5060323;28;20212;-67
2023/08/22 03:49:10;;;;;;;4.53;4.22;;;;;;;;;;5059995;28;20240;-67
2023/08/22 03:51:38;;;;;;;4.70;4.30;;;;;;;;;;5059693;28;20531;-66
2023/08/22 03:54:06;;;;;;;4.70;4.40;;;;;;;;;;5059593;28;20205;-67
2023/08/22 03:56:35;;;;;;;5.07;4.68;;;;;;;;;;5059757;28;20220;-67
2023/08/22 03:59:02;;;;;;;4.80;4.40;;;;;;;;;;5059641;28;20493;-67
2023/08/22 04:01:30;;;;;;;5.18;4.78;;;;;;;;;;5059623;28;20204;-67
2023/08/22 04:03:57;;;;;;;5.05;4.65;;;;;;;;;;5060142;28;20212;-68
2023/08/22 04:06:25;;;;;;;5.00;4.57;;;;;;;;;;5072263;28;20246;-66
2023/08/22 04:08:52;;;;;;;5.07;4.78;;;;;;;;;;5079572;28;20227;-67
2023/08/22 04:11:19;;;;;;;5.25;4.75;;;;;;;;;;5079556;28;20208;-67
2023/08/22 04:13:48;;;;;;;5.50;5.00;;;;;;;;;;5079573;28;20234;-67
2023/08/22 04:16:15;;;;;;;5.63;5.07;;;;;;;;;;5079018;28;20239;-68
2023/08/22 04:18:43;;;;;;;5.22;4.82;;;;;;;;;;5078828;28;20200;-68
2023/08/22 04:21:10;;;;;;;5.05;4.68;;;;;;;;;;5079435;28;20204;-67
2023/08/22 04:23:37;;;;;;;5.20;4.75;;;;;;;;;;5079048;28;20211;-67
2023/08/22 04:26:05;;;;;;;5.40;4.97;;;;;;;;;;5078527;28;20204;-67
2023/08/22 04:28:33;;;;;;;6.13;4.60;;;;;;;;;;5079501;28;20236;-67
2023/08/22 04:31:02;;;;;;;4.53;4.22;;;;;;;;;;5078919;28;20242;-67
2023/08/22 04:33:29;;;;;;;4.78;4.38;;;;;;;;;;5078191;28;20201;-67
2023/08/22 04:35:57;;;;;;;4.82;4.43;;;;;;;;;;5077982;28;20207;-67
2023/08/22 04:38:24;;;;;;;4.70;4.40;;;;;;;;;;5077324;28;20201;-67
2023/08/22 04:40:51;;;;;;;4.88;4.40;;;;;;;;;;5077829;28;20204;-67
2023/08/22 04:43:19;;;;;;;5.03;4.70;;;;;;;;;;5077600;28;20204;-66
2023/08/22 04:45:46;;;;;;;5.13;4.72;;;;;;;;;;5077550;28;20231;-67
2023/08/22 04:48:15;;;;;;;5.10;4.70;;;;;;;;;;5079508;28;20228;-68
2023/08/22 04:50:42;;;;;;;4.75;4.35;;;;;;;;;;5078040;28;20488;-68
2023/08/22 04:53:09;;;;;;;4.57;4.18;;;;;;;;;;5077740;28;20200;-68
2023/08/22 04:55:37;;;;;;;5.18;4.78;;;;;;;;;;5076765;28;20208;-67
2023/08/22 04:58:04;;;;;;;5.25;4.75;;;;;;;;;;5077142;28;20511;-68
2023/08/22 05:00:31;;;;;;;4.82;4.53;;;;;;;;;;5076788;28;20204;-68
2023/08/22 05:02:59;;;;;;;5.25;4.80;;;;;;;;;;5076430;28;20211;-69
2023/08/22 05:05:27;;;;;;;4.90;4.60;;;;;;;;;;5075949;28;20344;-68
2023/08/22 05:07:55;;;;;;;5.18;4.78;;;;;;;;;;5075612;28;20204;-66
2023/08/22 05:10:23;;;;;;;5.45;5.05;;;;;;;;;;5075913;28;20491;-66
2023/08/22 05:12:51;;;;;;;4.97;4.68;;;;;;;;;;5075347;28;20212;-66
2023/08/22 05:15:18;;;;;;;5.28;4.78;;;;;;;;;;5074739;28;20729;-66
2023/08/22 05:17:46;;;;;;;5.22;4.82;;;;;;;;;;5074926;28;20208;-66
2023/08/22 05:20:13;;;;;;;4.68;4.38;;;;;;;;;;5074924;28;20653;-67
2023/08/22 05:22:42;;;;;;;5.30;4.95;;;;;;;;;;5076275;28;20204;-66
2023/08/22 05:25:09;;;;;;;5.35;4.53;;;;;;;;;;5075162;28;20222;-67
2023/08/22 05:27:37;;;;;;;5.32;4.78;;;;;;;;;;5075301;28;20211;-66
2023/08/22 05:30:04;;;;;;;5.38;4.88;;;;;;;;;;5075138;28;20228;-66
2023/08/22 05:32:32;;;;;;;4.75;4.45;;;;;;;;;;5075014;28;20204;-66
2023/08/22 05:34:59;;;;;;;5.57;5.18;;;;;;;;;;5074969;28;20594;-66
2023/08/22 05:37:26;;;;;;;5.03;4.63;;;;;;;;;;5075258;28;20239;-66
2023/08/22 05:39:55;;;;;;;5.63;5.10;;;;;;;;;;5075683;28;20204;-66
2023/08/22 05:42:25;;;;;;;5.03;4.70;;;;;;;;;;5075029;28;20204;-66
2023/08/22 05:44:53;;;;;;;5.15;4.85;;;;;;;;;;5074462;28;20204;-66
2023/08/22 05:47:20;;;;;;;5.28;4.88;;;;;;;;;;5074989;28;20204;-66
2023/08/22 05:49:47;;;;;;;5.03;4.63;;;;;;;;;;5073050;28;20259;-66
2023/08/22 05:52:15;;;;;;;5.00;4.60;;;;;;;;;;5074862;28;20211;-66
2023/08/22 05:54:43;;;;;;;5.22;4.82;;;;;;;;;;5074664;28;20481;-66
2023/08/22 05:57:12;;;;;;;5.57;5.07;;;;;;;;;;5075105;28;20197;-66
2023/08/22 05:59:39;;;;;;;5.53;5.13;;;;;;;;;;5075158;28;20211;-66
2023/08/22 06:02:07;;;;;;;4.88;4.57;;;;;;;;;;5075137;28;20200;-66
2023/08/22 06:04:34;;;;;;;5.88;5.38;;;;;;;;;;5075438;28;20204;-66
2023/08/22 06:07:02;;;;;;;6.32;5.28;;;;;;;;;;5075033;28;20275;-66
2023/08/22 06:09:30;;;;;;;5.47;5.07;;;;;;;;;;5075253;28;20323;-66
2023/08/22 06:11:57;;;;;;;5.60;5.20;;;;;;;;;;5075133;28;20212;-66
2023/08/22 06:14:26;;;;;;;5.60;5.20;;;;;;;;;;5075302;28;20208;-66
2023/08/22 06:16:53;;;;;;;5.47;5.07;;;;;;;;;;5075300;28;20212;-66
2023/08/22 06:19:20;;;;;;;5.40;5.00;;;;;;;;;;5075745;28;20212;-66
2023/08/22 06:21:48;;;;;;;5.43;5.03;;;;;;;;;;5075708;28;20205;-66
2023/08/22 06:24:15;;;;;;;6.30;5.90;;;;;;;;;;5074404;28;20232;-66
2023/08/22 06:26:42;;;;;;;6.15;5.55;;;;;;;;;;5075397;28;20236;-66
2023/08/22 06:29:10;;;;;;;6.28;5.70;;;;;;;;;;5075245;28;20233;-66
2023/08/22 06:31:38;;;;;;;6.40;5.95;;;;;;;;;;5075520;28;20196;-66
2023/08/22 06:34:06;;;;;;;6.07;5.57;;;;;;;;;;5074792;28;20207;-66
2023/08/22 06:36:33;;;;;;;5.95;5.43;;;;;;;;;;5075391;28;20208;-66
2023/08/22 06:39:03;;;;;;;6.57;6.00;;;;;;;;;;5075651;28;20489;-66
2023/08/22 06:41:30;;;;;;;6.22;5.80;;;;;;;;;;5074352;28;20201;-66
2023/08/22 06:43:57;;;;;;;6.45;5.95;;;;;;;;;;5074629;28;20480;-66
2023/08/22 06:46:27;;;;;;;6.50;6.00;;;;;;;;;;5074258;28;20209;-66
2023/08/22 06:48:55;;;;;;;5.85;5.45;;;;;;;;;;5074268;28;20232;-67
2023/08/22 06:51:23;;;;;;;6.43;5.93;;;;;;;;;;5073287;28;20204;-66
2023/08/22 06:53:50;;;;;;;6.50;6.03;;;;;;;;;;5074879;28;20212;-66
2023/08/22 06:56:17;;;;;;;6.70;6.20;;;;;;;;;;5075236;28;20204;-67
2023/08/22 06:58:45;;;;;;;6.82;6.32;;;;;;;;;;5074392;28;20200;-66
2023/08/22 07:01:12;;;;;;;6.20;5.70;;;;;;;;;;5078370;28;20218;-66
2023/08/22 07:03:41;;;;;;;6.40;6.00;;;;;;;;;;5079526;28;20208;-66
2023/08/22 07:06:10;;;;;;;6.65;6.15;;;;;;;;;;5079087;28;20619;-66
2023/08/22 07:08:37;;;;;;;6.00;5.50;;;;;;;;;;5080044;28;20514;-66
2023/08/22 07:11:05;;;;;;;6.65;6.15;;;;;;;;;;5079479;28;20584;-66
2023/08/22 07:13:33;;;;;;;7.30;6.65;;;;;;;;;;5079660;28;20208;-67
2023/08/22 07:16:01;;;;;;;6.57;6.07;;;;;;;;;;5078865;28;20204;-66
2023/08/22 07:18:28;;;;;;;7.28;6.78;;;;;;;;;;5079347;28;20230;-66
2023/08/22 07:20:56;;;;;;;6.38;5.88;;;;;;;;;;5079059;28;20219;-66
2023/08/22 07:23:25;;;;;;;6.38;5.88;;;;;;;;;;5078230;28;20213;-66
2023/08/22 07:25:52;;;;;;;6.80;6.30;;;;;;;;;;5079033;28;20270;-66
2023/08/22 07:28:20;;;;;;;6.47;5.97;;;;;;;;;;5079422;28;20197;-66
2023/08/22 07:30:47;;;;;;;6.80;6.30;;;;;;;;;;5079361;28;20224;-66
2023/08/22 07:33:15;;;;;;;7.00;6.45;;;;;;;;;;5079274;28;20230;-66
2023/08/22 07:35:42;;;;;;;7.13;6.53;;;;;;;;;;5077864;28;20211;-66
2023/08/22 07:38:09;;;;;;;7.75;7.15;;;;;;;;;;5078009;28;20730;-66
2023/08/22 07:40:41;;;;;;;8.55;7.85;;;;;;;;;;5078393;28;20192;-66
2023/08/22 07:43:08;;;;;;;7.05;6.55;;;;;;;;;;5078140;28;20603;-66
2023/08/22 07:45:35;;;;;;;7.82;7.22;;;;;;;;;;5078093;28;20204;-66
2023/08/22 07:48:03;;;;;;;7.50;6.97;;;;;;;;;;5078606;28;20204;-66
2023/08/22 07:50:30;;;;;;;7.22;6.63;;;;;;;;;;5077540;28;20231;-67
2023/08/22 07:52:57;;;;;;;7.85;7.25;;;;;;;;;;5077427;28;20204;-66
2023/08/22 07:55:26;;;;;;;7.32;6.82;;;;;;;;;;5077252;28;20232;-67
2023/08/22 07:57:55;;;;;;;7.20;6.60;;;;;;;;;;5077646;28;20543;-66
2023/08/22 08:00:22;;;;;;;7.68;7.00;;;;;;;;;;5077553;28;20223;-66
2023/08/22 08:02:50;;;;;;;7.97;7.38;;;;;;;;;;5077434;28;20204;-66
2023/08/22 08:05:17;;;;;;;8.00;7.40;;;;;;;;;;5077751;28;20301;-66
2023/08/22 08:07:45;;;;;;;7.72;7.15;;;;;;;;;;5078189;28;20294;-66
2023/08/22 08:10:12;;;;;;;8.65;7.85;;;;;;;;;;5077706;28;20566;-66
2023/08/22 08:12:40;;;;;;;8.40;7.70;;;;;;;;;;5076846;28;20205;-67
2023/08/22 08:15:09;;;;;;;8.43;7.82;;;;;;;;;;5077852;28;20604;-66
2023/08/22 08:17:36;;;;;;;8.25;7.65;;;;;;;;;;5078126;28;20204;-66
2023/08/22 08:20:04;;;;;;;8.57;7.82;;;;;;;;;;5078484;28;20256;-66
2023/08/22 08:22:32;;;;;;;7.75;7.05;;;;;;;;;;5078322;28;20201;-66
2023/08/22 08:24:59;;;;;;;8.60;8.00;;;;;;;;;;5078130;28;20204;-66
2023/08/22 08:27:27;;;;;;;8.68;7.93;;;;;;;;;;5077969;28;20270;-66
2023/08/22 08:29:54;;;;;;;8.07;7.45;;;;;;;;;;5077662;28;20239;-67
2023/08/22 08:32:23;;;;;;;7.72;7.13;;;;;;;;;;5077268;28;20604;-66
2023/08/22 08:34:50;;;;;;;6.50;6.00;;;;;;;;;;5077044;28;20204;-66
2023/08/22 08:37:18;;;;;;;6.00;5.60;;;;;;;;;;5077034;28;20211;-66
2023/08/22 08:39:45;;;;;;;6.18;5.70;;;;;;;;;;5076659;28;20227;-66
2023/08/22 08:42:13;;;;;;;6.60;6.00;;;;;;;;;;5077307;28;20595;-66
2023/08/22 08:44:41;;;;;;;6.60;6.05;;;;;;;;;;5077450;28;20213;-66
2023/08/22 08:47:09;;;;;;;5.90;5.35;;;;;;;;;;5077192;28;20204;-66
2023/08/22 08:49:38;;;;;;;5.82;5.43;;;;;;;;;;5077411;28;20227;-66
2023/08/22 08:52:07;;;;;;;5.53;5.13;;;;;;;;;;5076903;28;20208;-66
2023/08/22 08:54:34;;;;;;;5.20;4.70;;;;;;;;;;5077401;28;20606;-66
2023/08/22 08:57:02;;;;;;;5.13;4.63;;;;;;;;;;5077470;28;20219;-66
2023/08/22 08:59:30;;;;;;;4.95;4.55;;;;;;;;;;5075749;28;20291;-66
2023/08/22 09:01:58;;;;;;;5.18;4.72;;;;;;;;;;5076935;28;20208;-66
2023/08/22 09:04:25;;;;;;;4.32;4.00;;;;;;;;;;5076087;28;20247;-67
2023/08/22 09:06:54;;;;;;;4.80;4.38;;;;;;;;;;5076740;28;20236;-66
2023/08/22 09:09:24;;;;;;;4.40;4.00;;;;;;;;;;5076504;28;20200;-67
2023/08/22 09:11:51;;;;;;;4.40;4.10;;;;;;;;;;5076841;28;20208;-66
2023/08/22 09:14:20;;;;;;;4.40;4.00;;;;;;;;;;5076149;28;20787;-66
2023/08/22 09:16:47;;;;;;;4.57;4.22;;;;;;;;;;5076218;28;20266;-65
2023/08/22 09:19:14;;;;;;;4.50;4.10;;;;;;;;;;5076207;28;20219;-66
2023/08/22 09:21:57;;;;;;;4.90;4.50;;;;;;;;;;5076089;28;20212;-66
2023/08/22 09:24:26;;;;;;;5.13;4.63;;;;;;;;;;5075183;28;20308;-66
2023/08/22 09:26:54;;;;;;;4.65;4.35;;;;;;;;;;5076035;28;20208;-66
2023/08/22 09:29:28;;;;;;;4.65;4.15;;;;;;;;;;5074421;28;20204;-66
2023/08/22 09:31:59;;;;;;;4.70;4.30;;;;;;;;;;5075167;28;20262;-67
2023/08/22 09:34:26;;;;;;;4.50;4.10;;;;;;;;;;5076003;28;20204;-65
2023/08/22 09:36:53;;;;;;;4.38;3.97;;;;;;;;;;5076032;28;20207;-67
2023/08/22 09:39:21;;;;;;;4.80;4.25;;;;;;;;;;5075434;28;20335;-66
2023/08/22 09:41:52;;;;;;;4.65;4.25;;;;;;;;;;5076381;28;20204;-66
2023/08/22 09:44:22;;;;;;;4.35;3.97;;;;;;;;;;5075940;28;20558;-66
2023/08/22 09:46:50;;;;;;;4.65;4.25;;;;;;;;;;5075224;28;20211;-66
2023/08/22 09:49:18;;;;;;;4.60;4.30;;;;;;;;;;5074682;28;20631;-66
2023/08/22 09:51:45;;;;;;;4.97;4.45;;;;;;;;;;5075421;28;20334;-66
2023/08/22 09:54:13;;;;;;;5.05;4.55;;;;;;;;;;5075206;28;20230;-66
2023/08/22 09:56:41;;;;;;;4.80;4.40;;;;;;;;;;5074847;28;20219;-66
2023/08/22 09:59:09;;;;;;;4.40;4.10;;;;;;;;;;5073869;28;20269;-66
2023/08/22 10:01:39;;;;;;;4.63;4.20;;;;;;;;;;5074827;28;20208;-66
2023/08/22 10:04:06;;;;;;;4.43;4.03;;;;;;;;;;5073197;28;20213;-66
2023/08/22 10:06:34;;;;;;;4.28;3.88;;;;;;;;;;5074192;28;20247;-66
2023/08/22 10:09:07;;;;;;;4.75;4.22;;;;;;;;;;5075193;28;20607;-66
2023/08/22 10:11:37;;;;;;;4.63;4.22;;;;;;;;;;5073513;28;20519;-66
2023/08/22 10:14:05;;;;;;;4.50;4.07;;;;;;;;;;5073438;28;20309;-66
2023/08/22 10:16:34;;;;;;;4.53;4.13;;;;;;;;;;5074239;28;20204;-66
2023/08/22 10:19:03;;;;;;;4.70;4.30;;;;;;;;;;5074799;28;20299;-66
2023/08/22 10:21:33;;;;;;;4.63;4.32;;;;;;;;;;5074201;28;20193;-66
2023/08/22 10:24:01;;;;;;;4.45;4.10;;;;;;;;;;5074097;28;20204;-66
2023/08/22 10:26:29;;;;;;;4.47;4.10;;;;;;;;;;5073862;28;20211;-66
2023/08/22 10:29:15;;;;;;;4.53;4.05;;;;;;;;;;5073336;28;20200;-66
2023/08/22 10:32:03;;;;;;;4.72;4.25;;;;;;;;;;5073990;28;20804;-66
2023/08/22 10:34:54;;;;;;;4.32;3.92;;;;;;;;;;5039031;28;20201;-66
2023/08/22 10:37:26;;;;;;;4.50;3.88;;;;;;;;;;5073829;28;20265;-67
2023/08/22 10:39:53;;;;;;;3.97;3.67;;;;;;;;;;5074520;28;20287;-66
2023/08/22 10:42:21;;;;;;;4.75;4.32;;;;;;;;;;5074417;28;20196;-66
2023/08/22 10:44:49;;;;;;;4.43;4.03;;;;;;;;;;5073873;28;20214;-67
2023/08/22 10:47:17;;;;;;;4.15;3.83;;;;;;;;;;5073497;28;20215;-66
2023/08/22 10:49:49;;;;;;;4.40;4.07;;;;;;;;;;5072693;28;20212;-66
2023/08/22 10:52:17;;;;;;;4.60;3.55;;;;;;;;;;5074159;28;20204;-66
2023/08/22 10:55:00;;;;;;;4.43;4.03;;;;;;;;;;5073415;28;20208;-66
2023/08/22 10:57:27;;;;;;;4.60;4.20;;;;;;;;;;5071085;28;20206;-66
2023/08/22 11:00:07;;;;;;;4.03;3.55;;;;;;;;;;5074210;28;20282;-66
2023/08/22 11:02:35;;;;;;;4.32;3.92;;;;;;;;;;5073692;28;20239;-66
2023/08/22 11:05:05;;;;;;;4.80;3.60;;;;;;;;;;5073590;28;20205;-66
2023/08/22 11:07:34;;;;;;;4.10;3.80;;;;;;;;;;5074378;28;20204;-66
2023/08/22 11:10:01;;;;;;;4.20;3.80;;;;;;;;;;5073659;28;20285;-66
2023/08/22 11:12:29;;;;;;;4.43;4.03;;;;;;;;;;5074446;28;20205;-67
2023/08/22 11:14:57;;;;;;;4.00;3.70;;;;;;;;;;5074410;28;20204;-67
2023/08/22 11:17:25;;;;;;;4.35;3.95;;;;;;;;;;5074347;28;20204;-66
2023/08/22 11:19:55;;;;;;;4.05;3.75;;;;;;;;;;5073375;28;20208;-66
2023/08/22 11:22:23;;;;;;;4.15;3.85;;;;;;;;;;5073834;28;20704;-66
2023/08/22 11:24:52;;;;;;;4.10;3.80;;;;;;;;;;5073895;28;20203;-66
2023/08/22 11:27:20;;;;;;;4.35;4.05;;;;;;;;;;5074299;28;20200;-66
2023/08/22 11:29:49;;;;;;;4.55;4.05;;;;;;;;;;5072839;28;20289;-66
2023/08/22 11:32:21;;;;;;;3.90;3.60;;;;;;;;;;5074216;28;20204;-66
2023/08/22 11:34:49;;;;;;;4.10;3.80;;;;;;;;;;5074286;28;20239;-66
2023/08/22 11:37:16;;;;;;;5.72;3.58;;;;;;;;;;5073479;28;20235;-66
2023/08/22 11:39:47;;;;;;;4.07;3.70;;;;;;;;;;5073155;28;20200;-66
2023/08/22 11:42:15;;;;;;;4.00;3.70;;;;;;;;;;5073551;28;20551;-66
2023/08/22 11:45:00;;;;;;;4.50;3.78;;;;;;;;;;5072950;28;20277;-67
2023/08/22 11:47:36;;;;;;;3.80;3.50;;;;;;;;;;5075243;28;20265;-67
2023/08/22 11:50:03;;;;;;;3.63;3.33;;;;;;;;;;5077512;28;20211;-66
2023/08/22 11:52:31;;;;;;;4.32;3.70;;;;;;;;;;5077337;28;20563;-66
2023/08/22 11:55:07;;;;;;;3.85;3.55;;;;;;;;;;5076955;28;20196;-66
2023/08/22 11:57:36;;;;;;;3.78;3.47;;;;;;;;;;5076621;28;20196;-66
2023/08/22 12:00:06;;;;;;;4.13;3.83;;;;;;;;;;5076660;28;20204;-66
2023/08/22 12:02:33;;;;;;;4.28;3.97;;;;;;;;;;5076474;28;20316;-66
2023/08/22 12:05:00;;;;;;;4.13;3.83;;;;;;;;;;5076811;28;20200;-66
2023/08/22 12:07:28;;;;;;;5.00;4.60;;;;;;;;;;5076844;28;20249;-66
2023/08/22 12:09:58;;;;;;;4.53;4.22;;;;;;;;;;5076417;28;20212;-66
2023/08/22 12:12:28;;;;;;;4.57;4.18;;;;;;;;;;5076438;28;20200;-66
2023/08/22 12:14:55;;;;;;;4.82;4.43;;;;;;;;;;5076243;28;20717;-66
2023/08/22 12:17:22;;;;;;;4.80;4.47;;;;;;;;;;5077633;28;20208;-66
2023/08/22 12:19:50;;;;;;;5.35;4.95;;;;;;;;;;5076349;28;20204;-66
2023/08/22 12:22:17;;;;;;;5.13;4.72;;;;;;;;;;5076531;28;20215;-67
2023/08/22 12:24:45;;;;;;;5.63;5.10;;;;;;;;;;5076774;28;20204;-66
2023/08/22 12:27:12;;;;;;;5.57;5.07;;;;;;;;;;5076820;28;20596;-66
2023/08/22 12:29:42;;;;;;;5.80;5.40;;;;;;;;;;5075617;28;20204;-66
2023/08/22 12:32:09;;;;;;;5.60;5.07;;;;;;;;;;5076733;28;20217;-67
2023/08/22 12:34:37;;;;;;;5.30;4.85;;;;;;;;;;5076270;28;20208;-66
2023/08/22 12:37:04;;;;;;;5.55;5.15;;;;;;;;;;5076007;28;20211;-66
2023/08/22 12:39:32;;;;;;;5.50;5.10;;;;;;;;;;5077360;28;20208;-66
2023/08/22 12:41:59;;;;;;;5.57;5.07;;;;;;;;;;5075900;28;20196;-66
2023/08/22 12:44:26;;;;;;;5.50;5.00;;;;;;;;;;5076725;28;20208;-66
2023/08/22 12:46:57;;;;;;;5.70;5.28;;;;;;;;;;5075403;28;20755;-66
2023/08/22 12:49:25;;;;;;;5.28;4.88;;;;;;;;;;5075594;28;20204;-66
2023/08/22 12:51:52;;;;;;;5.70;5.20;;;;;;;;;;5075582;28;20220;-66
2023/08/22 12:54:19;;;;;;;5.40;5.00;;;;;;;;;;5075507;28;20486;-66
2023/08/22 12:56:46;;;;;;;5.97;5.53;;;;;;;;;;5076725;28;20205;-66
2023/08/22 12:59:14;;;;;;;5.95;5.53;;;;;;;;;;5075730;28;20204;-67
2023/08/22 13:01:41;;;;;;;5.60;5.20;;;;;;;;;;5075671;28;20200;-70
2023/08/22 13:04:13;;;;;;;5.85;5.38;;;;;;;;;;5074939;28;20204;-66
2023/08/22 13:06:41;;;;;;;6.10;5.50;;;;;;;;;;5075280;28;20242;-67
2023/08/22 13:09:10;;;;;;;6.10;5.70;;;;;;;;;;5076453;28;20204;-67
2023/08/22 13:11:39;;;;;;;5.85;5.45;;;;;;;;;;5075484;28;20226;-66
2023/08/22 13:14:07;;;;;;;5.78;5.38;;;;;;;;;;5075565;28;20266;-66
2023/08/22 13:16:34;;;;;;;5.97;5.47;;;;;;;;;;5075725;28;20205;-66
2023/08/22 13:19:01;;;;;;;5.50;5.10;;;;;;;;;;5075287;28;20208;-66
2023/08/22 13:21:30;;;;;;;5.60;5.20;;;;;;;;;;5075538;28;20227;-67
2023/08/22 13:23:57;;;;;;;6.05;5.65;;;;;;;;;;5074513;28;20214;-66
2023/08/22 13:26:25;;;;;;;5.88;5.43;;;;;;;;;;5074720;28;20200;-66
2023/08/22 13:28:52;;;;;;;5.57;5.25;;;;;;;;;;5074422;28;20212;-67
2023/08/22 13:31:20;;;;;;;5.97;5.47;;;;;;;;;;5075151;28;20224;-67
2023/08/22 13:33:47;;;;;;;6.05;5.55;;;;;;;;;;5074966;28;20274;-67
2023/08/22 13:36:15;;;;;;;5.63;5.13;;;;;;;;;;5074294;28;20243;-66
2023/08/22 13:38:44;;;;;;;6.13;5.63;;;;;;;;;;5074768;28;20207;-66
2023/08/22 13:41:11;;;;;;;5.70;5.20;;;;;;;;;;5075392;28;20201;-66
2023/08/22 13:43:39;;;;;;;5.82;5.22;;;;;;;;;;5074195;28;20656;-67
2023/08/22 13:46:06;;;;;;;5.95;5.55;;;;;;;;;;5075674;28;20208;-66
2023/08/22 13:48:34;;;;;;;6.00;5.50;;;;;;;;;;5075043;28;20689;-66
2023/08/22 13:51:02;;;;;;;6.25;5.75;;;;;;;;;;5074186;28;20563;-66
2023/08/22 13:53:31;;;;;;;6.05;5.55;;;;;;;;;;5074546;28;20216;-66
2023/08/22 13:55:59;;;;;;;6.40;5.90;;;;;;;;;;5074225;28;20205;-67
2023/08/22 13:58:27;;;;;;;6.20;5.70;;;;;;;;;;5074854;28;20608;-67
2023/08/22 14:00:54;;;;;;;5.93;5.40;;;;;;;;;;5074672;28;20203;-66
2023/08/22 14:03:21;;;;;;;5.75;5.38;;;;;;;;;;5074086;28;20608;-66
2023/08/22 14:05:48;;;;;;;6.22;5.72;;;;;;;;;;5074341;28;20274;-66
2023/08/22 14:08:16;;;;;;;6.07;5.57;;;;;;;;;;5074455;28;20204;-67
2023/08/22 14:10:43;;;;;;;5.70;5.30;;;;;;;;;;5073340;28;20577;-67
2023/08/22 14:13:13;;;;;;;6.13;5.63;;;;;;;;;;5073866;28;20196;-66
2023/08/22 14:15:40;;;;;;;6.15;5.63;;;;;;;;;;5074195;28;20211;-67
2023/08/22 14:18:08;;;;;;;5.95;5.45;;;;;;;;;;5074510;28;20215;-66
2023/08/22 14:20:36;;;;;;;5.65;5.22;;;;;;;;;;5073605;28;20269;-66
2023/08/22 14:23:03;;;;;;;5.95;5.45;;;;;;;;;;5073979;28;20216;-67
2023/08/22 14:25:31;;;;;;;6.05;5.55;;;;;;;;;;5073969;28;20196;-66
2023/08/22 14:27:58;;;;;;;6.00;5.40;;;;;;;;;;5073627;28;20208;-66
2023/08/22 14:30:27;;;;;;;6.10;5.60;;;;;;;;;;5073703;28;20197;-66
2023/08/22 14:32:54;;;;;;;5.85;5.45;;;;;;;;;;5074190;28;20619;-66
2023/08/22 14:35:21;;;;;;;6.07;5.65;;;;;;;;;;5073834;28;20200;-66
2023/08/22 14:37:49;;;;;;;6.40;5.88;;;;;;;;;;5074631;28;20512;-66
2023/08/22 14:40:16;;;;;;;5.70;5.20;;;;;;;;;;5074227;28;20223;-67
2023/08/22 14:42:43;;;;;;;6.15;5.60;;;;;;;;;;5074188;28;20200;-67
2023/08/22 14:45:11;;;;;;;5.95;5.55;;;;;;;;;;5073691;28;20588;-67
2023/08/22 14:47:39;;;;;;;5.80;5.30;;;;;;;;;;5074486;28;20219;-67
2023/08/22 14:50:07;;;;;;;5.20;4.85;;;;;;;;;;5073874;28;20219;-67